Main page
Satellite images 10-day forecastsClimateMarine weather Cyclones Lightning AirportsFAQ Newsletter About
Weather : Europe Africa North America South America Asia Australia-Oceania Others
Languages Contact

Alpine, Texas, United States

Alpine-Casparis Municipal Airport

latitude: 30-23-03N, longitude: 103-41-00W, elevation: 1376 m


METAR: KE38 310455Z AUTO 00000KT 10SM CLR 16/09 A3020 RMK AO2 T01640085
TAF: missing

Time: 00:20 (05:20 UTC)

Current weather observation

The report was made 25 minutes ago, at 04:55 UTC
Calm wind
Temperature 16°C
Humidity 63%
Pressure 1023 hPa
Visibility: 16.1 km
Clear sky

Change units
The information on this site is subject to a disclaimer
Weather : Europe Africa North America South America Asia Australia-Oceania Others
Satellite images 10-day forecastsClimateMarine weather Cyclones Lightning AirportsFAQ Languages Contact Newsletter About